Time;durP1;ratioP1;P1;durP2;ratioP2;P2;SDS_P1;SDS_P2;PMS_P1;PMS_P2;Temp;Humidity;BMP_temperature;BMP_pressure;BME280_temperature;BME280_humidity;BME280_pressure;Samples;Min_cycle;Max_cycle;Signal;HPM_P1;HPM_P2
2021/12/29 00:01:04;;;;;;;63.30;16.70;;;6.80;99.90;;;;;;5117122;27;20205;-89
2021/12/29 00:03:30;;;;;;;98.82;18.77;;;6.90;99.90;;;;;;5110697;27;20050;-90
2021/12/29 00:05:55;;;;;;;80.45;17.40;;;6.80;99.90;;;;;;5114259;27;20397;-89
2021/12/29 00:08:21;;;;;;;77.30;17.23;;;6.80;99.90;;;;;;5058533;27;20060;-89
2021/12/29 00:10:54;;;;;;;67.75;15.27;;;6.80;99.90;;;;;;5100198;28;20039;-90
2021/12/29 00:13:20;;;;;;;56.53;13.32;;;6.80;99.90;;;;;;5083813;27;20127;-90
2021/12/29 00:15:45;;;;;;;57.15;12.50;;;6.80;99.90;;;;;;5099090;28;20282;-89
2021/12/29 00:18:11;;;;;;;51.70;12.63;;;6.80;99.90;;;;;;5081318;27;20323;-90
2021/12/29 00:20:36;;;;;;;53.38;12.60;;;6.80;99.90;;;;;;5085264;27;20027;-90
2021/12/29 00:23:05;;;;;;;49.35;11.98;;;6.80;99.90;;;;;;5099836;27;20518;-89
2021/12/29 00:25:31;;;;;;;44.40;11.50;;;6.80;99.90;;;;;;5081250;28;20035;-90
2021/12/29 00:27:59;;;;;;;52.03;12.32;;;6.80;99.90;;;;;;5096259;27;20047;-90
2021/12/29 00:30:26;;;;;;;49.17;12.23;;;6.80;99.90;;;;;;5098789;28;20035;-90
2021/12/29 00:32:51;;;;;;;50.13;11.98;;;6.70;99.90;;;;;;5067610;28;20454;-90
2021/12/29 00:35:18;;;;;;;43.40;10.38;;;6.80;99.90;;;;;;5082328;28;20081;-89
2021/12/29 00:37:43;;;;;;;49.78;10.90;;;6.80;99.90;;;;;;5110957;27;20032;-90
2021/12/29 00:40:10;;;;;;;43.28;11.00;;;6.70;99.90;;;;;;5072306;28;20046;-90
2021/12/29 00:42:38;;;;;;;42.30;10.25;;;6.70;99.90;;;;;;5070353;28;20122;-90
2021/12/29 00:45:05;;;;;;;33.35;9.18;;;6.70;99.90;;;;;;5069485;28;20059;-90
2021/12/29 00:47:32;;;;;;;38.47;9.43;;;6.70;99.90;;;;;;5087206;27;20121;-90
2021/12/29 00:50:01;;;;;;;35.72;9.63;;;6.70;99.90;;;;;;5079339;28;20039;-90
2021/12/29 00:52:26;;;;;;;36.88;9.52;;;6.70;99.90;;;;;;5080368;28;20070;-89
2021/12/29 00:54:52;;;;;;;35.28;9.95;;;6.70;99.90;;;;;;5070502;28;20066;-90
2021/12/29 00:57:18;;;;;;;36.70;9.10;;;6.70;99.90;;;;;;5093077;27;20089;-90
2021/12/29 00:59:45;;;;;;;34.63;9.25;;;6.70;99.90;;;;;;5099861;27;20397;-90
2021/12/29 01:02:11;;;;;;;45.05;10.20;;;6.70;99.90;;;;;;5098117;27;20126;-90
2021/12/29 01:04:37;;;;;;;37.25;9.48;;;6.70;99.90;;;;;;5084084;27;20442;-90
2021/12/29 01:07:03;;;;;;;51.10;10.07;;;6.70;99.90;;;;;;5097935;28;20042;-90
2021/12/29 01:09:29;;;;;;;42.03;10.05;;;6.70;99.90;;;;;;5115244;27;20027;-90
2021/12/29 01:11:56;;;;;;;38.58;10.45;;;6.70;99.90;;;;;;5084250;27;20111;-90
2021/12/29 01:14:25;;;;;;;39.92;9.25;;;6.70;99.90;;;;;;5081491;28;20449;-90
2021/12/29 01:16:50;;;;;;;41.00;10.70;;;6.70;99.90;;;;;;5103552;27;20415;-90
2021/12/29 01:19:24;;;;;;;48.90;11.38;;;6.70;99.90;;;;;;5100316;27;20039;-90
2021/12/29 01:21:53;;;;;;;49.15;11.32;;;6.70;99.90;;;;;;5086669;28;20239;-90
2021/12/29 01:24:21;;;;;;;49.53;11.90;;;6.70;99.90;;;;;;5076346;28;20063;-90
2021/12/29 01:26:48;;;;;;;59.45;11.60;;;6.70;99.90;;;;;;5099582;27;20039;-89
2021/12/29 01:29:14;;;;;;;56.50;12.60;;;6.70;99.90;;;;;;5100587;28;20513;-89
2021/12/29 01:31:41;;;;;;;63.08;12.63;;;6.70;99.90;;;;;;5124551;27;20038;-90
2021/12/29 01:34:08;;;;;;;67.13;13.25;;;6.70;99.90;;;;;;5083005;27;20044;-90
2021/12/29 01:36:35;;;;;;;74.68;14.07;;;6.70;99.90;;;;;;5101238;27;20047;-90
2021/12/29 01:39:03;;;;;;;93.95;15.43;;;6.70;99.90;;;;;;5098221;27;20035;-90
2021/12/29 01:41:29;;;;;;;83.53;15.88;;;6.70;99.90;;;;;;5094842;28;20076;-89
2021/12/29 01:43:55;;;;;;;91.28;16.30;;;6.80;99.90;;;;;;5078325;27;20397;-90
2021/12/29 01:46:20;;;;;;;86.75;16.10;;;6.80;99.90;;;;;;5094325;28;20447;-89
2021/12/29 01:48:46;;;;;;;102.70;16.73;;;6.80;99.90;;;;;;5077621;27;20043;-90
2021/12/29 01:51:13;;;;;;;116.07;18.42;;;6.80;99.90;;;;;;5101036;27;20027;-90
2021/12/29 01:53:47;;;;;;;106.20;17.38;;;6.80;99.90;;;;;;5093008;27;20056;-90
2021/12/29 01:56:14;;;;;;;106.72;18.73;;;6.80;99.90;;;;;;5110846;27;20404;-90
2021/12/29 01:58:40;;;;;;;123.90;19.60;;;6.80;99.90;;;;;;5073927;27;20058;-89
2021/12/29 02:01:06;;;;;;;122.15;19.02;;;6.90;99.90;;;;;;5082171;28;20035;-90
2021/12/29 02:03:32;;;;;;;121.55;19.10;;;6.90;99.90;;;;;;5093824;27;20104;-90
2021/12/29 02:05:58;;;;;;;149.63;19.83;;;6.90;99.90;;;;;;5082413;27;20104;-89
2021/12/29 02:08:24;;;;;;;131.55;20.02;;;6.90;99.90;;;;;;5093122;28;20862;-90
2021/12/29 02:10:52;;;;;;;148.60;20.85;;;6.90;99.90;;;;;;5090922;27;20071;-89
2021/12/29 02:13:19;;;;;;;164.85;21.20;;;6.90;99.90;;;;;;5079639;27;20031;-90
2021/12/29 02:15:45;;;;;;;158.32;21.08;;;6.90;99.90;;;;;;5099917;27;20079;-89
2021/12/29 02:18:15;;;;;;;142.63;18.15;;;6.90;99.90;;;;;;5097631;27;20056;-90
2021/12/29 02:20:46;;;;;;;125.40;18.90;;;6.90;99.90;;;;;;5085246;28;20035;-90
2021/12/29 02:23:21;;;;;;;153.13;20.33;;;6.90;99.90;;;;;;5078256;27;20130;-90
2021/12/29 02:25:53;;;;;;;112.80;17.33;;;6.90;99.90;;;;;;5082306;28;20553;-90
2021/12/29 02:28:28;;;;;;;101.28;15.60;;;7.00;99.90;;;;;;5081112;27;20312;-90
2021/12/29 02:30:55;;;;;;;126.97;15.65;;;7.00;99.90;;;;;;5091724;28;20038;-90
2021/12/29 02:33:22;;;;;;;94.60;15.45;;;6.90;99.90;;;;;;5095941;27;20567;-90
2021/12/29 02:35:48;;;;;;;88.63;13.50;;;7.00;99.90;;;;;;5089245;27;20043;-91
2021/12/29 02:38:29;;;;;;;81.47;11.57;;;7.00;99.90;;;;;;5114925;27;20452;-90
2021/12/29 02:40:59;;;;;;;88.15;12.80;;;7.00;99.90;;;;;;5106698;28;20465;-89
2021/12/29 02:43:25;;;;;;;89.00;13.57;;;7.00;99.90;;;;;;5093706;27;20049;-90
2021/12/29 02:45:58;;;;;;;95.93;13.73;;;7.00;99.90;;;;;;5097187;28;20453;-90
2021/12/29 02:48:26;;;;;;;84.32;12.75;;;7.00;99.90;;;;;;5101637;27;20039;-90
2021/12/29 02:50:55;;;;;;;86.22;12.43;;;7.00;99.90;;;;;;5093827;27;20058;-89
2021/12/29 02:53:22;;;;;;;91.47;12.27;;;7.00;99.90;;;;;;5078174;27;20119;-90
2021/12/29 02:55:47;;;;;;;77.35;12.02;;;7.00;99.90;;;;;;5097040;28;20323;-91
2021/12/29 02:58:13;;;;;;;77.80;12.85;;;7.10;99.90;;;;;;5078784;28;20302;-90
2021/12/29 03:00:39;;;;;;;62.15;11.45;;;7.10;99.90;;;;;;5077043;28;20073;-91
2021/12/29 03:03:18;;;;;;;69.22;13.38;;;7.10;99.90;;;;;;5077663;28;20427;-90
2021/12/29 03:05:44;;;;;;;69.35;11.73;;;7.10;99.90;;;;;;5088526;28;20122;-90
2021/12/29 03:08:12;;;;;;;76.85;12.32;;;7.10;99.90;;;;;;5053769;28;20405;-89
2021/12/29 03:10:38;;;;;;;76.10;13.38;;;7.10;99.90;;;;;;5076908;28;20393;-90
2021/12/29 03:13:04;;;;;;;72.25;12.98;;;7.10;99.90;;;;;;5090926;28;20127;-91
2021/12/29 03:15:30;;;;;;;68.57;14.18;;;7.10;99.90;;;;;;5089276;28;20138;-91
2021/12/29 03:17:56;;;;;;;79.50;15.35;;;7.20;99.90;;;;;;5077483;28;20543;-90
2021/12/29 03:20:21;;;;;;;87.75;15.93;;;7.20;99.90;;;;;;5091992;28;20481;-90
2021/12/29 03:22:47;;;;;;;85.65;16.33;;;7.20;99.90;;;;;;5097518;28;20047;-90
2021/12/29 03:25:13;;;;;;;100.30;17.77;;;7.20;99.90;;;;;;5078922;28;21458;-91
2021/12/29 03:27:38;;;;;;;101.38;17.77;;;7.20;99.90;;;;;;5097760;28;20152;-90
2021/12/29 03:30:04;;;;;;;117.72;19.05;;;7.20;99.90;;;;;;5093757;28;20495;-90
2021/12/29 03:32:39;;;;;;;99.05;18.00;;;7.20;99.90;;;;;;5094408;28;20084;-91
2021/12/29 03:35:05;;;;;;;102.72;19.20;;;7.20;99.90;;;;;;5113086;27;20096;-90
2021/12/29 03:37:31;;;;;;;114.07;20.52;;;7.20;99.90;;;;;;5117351;27;20478;-90
2021/12/29 03:39:57;;;;;;;96.10;19.48;;;7.30;99.90;;;;;;5094737;28;20035;-90
2021/12/29 03:42:22;;;;;;;94.00;18.17;;;7.30;99.90;;;;;;5078078;28;20047;-90
2021/12/29 03:44:48;;;;;;;95.97;18.33;;;7.30;99.90;;;;;;5079435;28;20505;-90
2021/12/29 03:47:13;;;;;;;108.47;21.45;;;7.30;99.90;;;;;;5084129;27;20085;-91
2021/12/29 03:49:39;;;;;;;103.22;20.77;;;7.30;99.90;;;;;;5113867;27;20568;-91
2021/12/29 03:52:05;;;;;;;103.82;21.23;;;7.30;99.90;;;;;;5116319;27;20031;-90
2021/12/29 03:54:32;;;;;;;92.40;19.67;;;7.30;99.90;;;;;;5081081;27;20040;-90
2021/12/29 03:57:01;;;;;;;103.60;22.05;;;7.30;99.90;;;;;;5100231;28;20065;-90
2021/12/29 03:59:27;;;;;;;111.63;23.35;;;7.30;99.90;;;;;;5076636;27;20027;-90
2021/12/29 04:01:53;;;;;;;104.65;22.23;;;7.30;99.90;;;;;;5094068;27;20461;-90
2021/12/29 04:04:19;;;;;;;85.68;21.33;;;7.30;99.90;;;;;;5079349;27;20032;-90
2021/12/29 04:06:46;;;;;;;114.65;23.85;;;7.30;99.90;;;;;;5099876;27;20496;-91
2021/12/29 04:09:12;;;;;;;101.13;22.40;;;7.30;99.90;;;;;;5095705;28;20165;-91
2021/12/29 04:11:37;;;;;;;93.18;24.95;;;7.30;99.90;;;;;;5089772;28;20501;-90
2021/12/29 04:14:03;;;;;;;102.07;24.48;;;7.30;99.90;;;;;;5072449;28;20031;-90
2021/12/29 04:16:29;;;;;;;100.32;23.70;;;7.40;99.90;;;;;;5074042;28;20481;-90
2021/12/29 04:21:53;;;;;;;99.13;23.88;;;7.40;99.90;;;;;;5069318;28;20043;-90
2021/12/29 04:24:18;;;;;;;107.28;24.92;;;7.40;99.90;;;;;;5073073;28;20519;-90
2021/12/29 04:26:44;;;;;;;126.85;26.13;;;7.40;99.90;;;;;;5095861;28;20454;-90
2021/12/29 04:29:13;;;;;;;114.85;25.13;;;7.40;99.90;;;;;;5080607;27;20106;-90
2021/12/29 04:31:39;;;;;;;98.95;23.73;;;7.40;99.90;;;;;;5083763;27;20278;-90
2021/12/29 04:34:04;;;;;;;99.15;24.10;;;7.40;99.90;;;;;;5098223;28;20105;-91
2021/12/29 04:36:30;;;;;;;137.88;25.85;;;7.40;99.90;;;;;;5077816;27;20467;-90
2021/12/29 04:38:58;;;;;;;113.30;26.27;;;7.40;99.90;;;;;;5107089;27;20421;-90
2021/12/29 04:41:24;;;;;;;99.97;23.80;;;7.40;99.90;;;;;;5100177;28;20050;-91
2021/12/29 04:43:50;;;;;;;89.32;21.90;;;7.40;99.90;;;;;;5110075;27;20684;-90
2021/12/29 04:46:18;;;;;;;105.03;23.42;;;7.40;99.90;;;;;;5080073;27;20492;-90
2021/12/29 04:48:58;;;;;;;82.93;20.48;;;7.40;99.90;;;;;;5104181;28;20048;-91
2021/12/29 04:51:32;;;;;;;83.88;19.65;;;7.40;99.90;;;;;;5082028;27;20036;-90
2021/12/29 04:53:58;;;;;;;88.97;21.00;;;7.40;99.90;;;;;;5080791;28;20046;-91
2021/12/29 04:56:23;;;;;;;73.78;19.13;;;7.40;99.90;;;;;;5111025;27;20113;-90
2021/12/29 04:58:49;;;;;;;69.78;18.15;;;7.40;99.90;;;;;;5079958;27;20035;-90
2021/12/29 05:01:14;;;;;;;66.43;18.75;;;7.40;99.90;;;;;;5075894;28;20062;-90
2021/12/29 05:03:43;;;;;;;73.43;18.80;;;7.40;99.90;;;;;;5083626;27;20401;-90
2021/12/29 05:08:34;;;;;;;88.05;20.45;;;7.50;99.90;;;;;;5102839;27;20035;-90
2021/12/29 05:11:04;;;;;;;76.15;18.63;;;7.40;99.90;;;;;;5084090;27;20104;-90
2021/12/29 05:13:32;;;;;;;76.03;19.85;;;7.50;99.90;;;;;;5085422;27;20050;-90
2021/12/29 05:15:58;;;;;;;63.50;18.00;;;7.50;99.90;;;;;;5109936;27;20823;-90
2021/12/29 05:18:26;;;;;;;78.22;19.65;;;7.40;99.90;;;;;;5081266;27;20118;-90
2021/12/29 05:20:52;;;;;;;94.07;19.00;;;7.40;99.90;;;;;;5114818;27;20115;-90
2021/12/29 05:23:18;;;;;;;72.38;18.13;;;7.40;99.90;;;;;;5113830;27;20043;-90
2021/12/29 05:25:44;;;;;;;86.07;20.58;;;7.40;99.90;;;;;;5101001;27;20042;-90
2021/12/29 05:28:10;;;;;;;80.72;20.63;;;7.50;99.90;;;;;;5094980;28;20036;-90
2021/12/29 05:30:36;;;;;;;72.03;19.20;;;7.50;99.90;;;;;;5098415;27;20028;-89
2021/12/29 05:33:04;;;;;;;74.07;19.33;;;7.50;99.90;;;;;;5082023;27;20074;-90
2021/12/29 05:35:29;;;;;;;81.85;20.08;;;7.50;99.90;;;;;;5084143;27;20467;-91
2021/12/29 05:37:56;;;;;;;66.15;19.55;;;7.50;99.90;;;;;;5097279;28;20036;-90
2021/12/29 05:40:23;;;;;;;72.93;20.38;;;7.50;99.90;;;;;;5081720;28;20044;-89
2021/12/29 05:42:50;;;;;;;69.90;19.02;;;7.50;99.90;;;;;;5087033;27;20088;-90
2021/12/29 05:45:17;;;;;;;73.18;19.98;;;7.50;99.90;;;;;;5092877;28;20058;-90
2021/12/29 05:47:43;;;;;;;73.20;19.45;;;7.50;99.90;;;;;;5076428;28;20210;-90
2021/12/29 05:50:13;;;;;;;65.80;17.70;;;7.50;99.90;;;;;;5080372;27;20097;-90
2021/12/29 05:52:39;;;;;;;75.05;19.05;;;7.50;99.90;;;;;;5098322;28;20036;-90
2021/12/29 05:55:06;;;;;;;83.57;19.00;;;7.50;99.90;;;;;;5075528;27;20039;-90
2021/12/29 05:57:32;;;;;;;85.00;19.45;;;7.50;99.90;;;;;;5071593;27;20039;-91
2021/12/29 05:59:58;;;;;;;75.95;18.33;;;7.50;99.90;;;;;;5082715;27;20043;-90
2021/12/29 06:02:23;;;;;;;75.57;18.98;;;7.50;99.90;;;;;;5074921;27;20415;-91
2021/12/29 06:04:49;;;;;;;77.35;19.95;;;7.50;99.90;;;;;;5095917;27;20265;-91
2021/12/29 06:07:15;;;;;;;78.60;19.00;;;7.50;99.90;;;;;;5095867;27;20039;-90
2021/12/29 06:09:41;;;;;;;71.45;20.15;;;7.50;99.90;;;;;;5076206;28;20027;-90
2021/12/29 06:12:08;;;;;;;71.47;18.98;;;7.50;99.90;;;;;;5115315;27;20128;-90
2021/12/29 06:14:33;;;;;;;69.72;19.58;;;7.50;99.90;;;;;;5097360;27;20121;-90
2021/12/29 06:16:59;;;;;;;70.68;19.27;;;7.50;99.90;;;;;;5077178;27;20043;-90
2021/12/29 06:19:25;;;;;;;69.43;18.35;;;7.50;99.90;;;;;;5095787;27;20042;-90
2021/12/29 06:21:51;;;;;;;77.68;20.40;;;7.50;99.90;;;;;;5082941;27;20046;-91
2021/12/29 06:24:16;;;;;;;72.05;19.58;;;7.50;99.90;;;;;;5079979;27;20054;-91
2021/12/29 06:26:42;;;;;;;76.88;20.00;;;7.50;99.90;;;;;;5090825;28;20051;-91
2021/12/29 06:29:08;;;;;;;81.00;21.08;;;7.50;99.90;;;;;;5084863;28;20061;-91
2021/12/29 06:31:34;;;;;;;80.50;19.67;;;7.50;99.90;;;;;;5095029;27;20088;-90
2021/12/29 06:34:00;;;;;;;79.95;19.85;;;7.50;99.90;;;;;;5073559;28;20193;-90
2021/12/29 06:36:27;;;;;;;79.70;20.38;;;7.50;99.90;;;;;;5110569;27;20050;-90
2021/12/29 06:38:52;;;;;;;65.38;19.58;;;7.50;99.90;;;;;;5075283;28;20119;-90
2021/12/29 06:41:18;;;;;;;85.82;19.92;;;7.50;99.90;;;;;;5061151;28;20031;-90
2021/12/29 06:43:44;;;;;;;70.78;18.55;;;7.50;99.90;;;;;;5098951;28;20403;-89
2021/12/29 06:46:09;;;;;;;68.93;18.13;;;7.50;99.90;;;;;;5108174;27;21000;-90
2021/12/29 06:48:35;;;;;;;70.13;19.08;;;7.50;99.90;;;;;;5072968;28;20158;-90
2021/12/29 06:51:01;;;;;;;62.65;18.73;;;7.50;99.90;;;;;;5097908;28;20035;-90
2021/12/29 06:53:29;;;;;;;66.80;18.63;;;7.50;99.90;;;;;;5101355;28;20050;-90
2021/12/29 06:55:55;;;;;;;69.40;18.27;;;7.50;99.90;;;;;;5093556;28;20043;-90
2021/12/29 06:58:21;;;;;;;73.85;18.58;;;7.50;99.90;;;;;;5093147;28;20031;-90
2021/12/29 07:00:46;;;;;;;75.88;18.98;;;7.50;99.90;;;;;;5091539;28;20389;-91
2021/12/29 07:03:12;;;;;;;68.00;17.42;;;7.50;99.90;;;;;;5113968;28;20027;-90
2021/12/29 07:05:39;;;;;;;58.55;16.50;;;7.50;99.90;;;;;;5093050;28;20036;-89
2021/12/29 07:08:05;;;;;;;66.28;17.42;;;7.50;99.90;;;;;;5087712;28;20066;-89
2021/12/29 07:10:31;;;;;;;69.45;17.08;;;7.50;99.90;;;;;;5085254;28;20058;-90
2021/12/29 07:12:56;;;;;;;64.15;16.27;;;7.50;99.90;;;;;;5087161;28;20115;-91
2021/12/29 07:15:22;;;;;;;67.47;15.98;;;7.50;99.90;;;;;;5070156;28;20122;-89
2021/12/29 07:17:48;;;;;;;60.13;15.68;;;7.50;99.90;;;;;;5076176;28;20035;-89
2021/12/29 07:20:14;;;;;;;62.97;16.30;;;7.60;99.90;;;;;;5092004;28;20118;-89
2021/12/29 07:22:39;;;;;;;62.13;16.02;;;7.50;99.90;;;;;;5093429;28;20039;-89
2021/12/29 07:25:05;;;;;;;60.42;14.63;;;7.50;99.90;;;;;;5094429;27;20081;-90
2021/12/29 07:27:31;;;;;;;60.25;15.90;;;7.50;99.90;;;;;;5094469;27;20068;-89
2021/12/29 07:29:56;;;;;;;54.90;14.80;;;7.50;99.90;;;;;;5097386;27;20381;-90
2021/12/29 07:32:22;;;;;;;65.93;15.07;;;7.50;99.90;;;;;;5080475;27;20076;-88
2021/12/29 07:34:48;;;;;;;61.85;14.88;;;7.50;99.90;;;;;;5081827;28;20493;-87
2021/12/29 07:37:14;;;;;;;53.45;14.57;;;7.50;99.90;;;;;;5092007;27;20100;-87
2021/12/29 07:39:40;;;;;;;52.72;14.18;;;7.50;99.90;;;;;;5073815;28;20063;-88
2021/12/29 07:42:07;;;;;;;59.95;14.85;;;7.50;99.90;;;;;;5076187;28;20039;-88
2021/12/29 07:44:33;;;;;;;64.55;15.38;;;7.50;99.90;;;;;;5072665;28;20554;-89
2021/12/29 07:46:59;;;;;;;60.10;14.07;;;7.50;99.90;;;;;;5070420;28;20129;-88
2021/12/29 07:49:26;;;;;;;61.47;15.20;;;7.50;99.90;;;;;;5089958;28;20038;-89
2021/12/29 07:51:53;;;;;;;62.13;15.05;;;7.50;99.90;;;;;;5091165;28;20427;-87
2021/12/29 07:54:20;;;;;;;76.65;16.00;;;7.50;99.90;;;;;;5094368;27;20088;-87
2021/12/29 07:56:46;;;;;;;62.75;15.90;;;7.50;99.90;;;;;;5084039;27;20389;-87
2021/12/29 07:59:12;;;;;;;86.32;17.23;;;7.50;99.90;;;;;;5090953;27;20043;-88
2021/12/29 08:01:42;;;;;;;76.57;17.67;;;7.50;99.90;;;;;;5077663;28;20075;-87
2021/12/29 08:04:13;;;;;;;69.22;15.70;;;7.50;99.90;;;;;;5077081;28;20031;-87
2021/12/29 08:06:39;;;;;;;70.30;16.65;;;7.50;99.90;;;;;;5090836;28;20047;-87
2021/12/29 08:09:07;;;;;;;75.30;16.85;;;7.60;99.90;;;;;;5080739;28;20047;-88
2021/12/29 08:11:33;;;;;;;84.72;17.15;;;7.60;99.90;;;;;;5076725;28;20114;-86
2021/12/29 08:13:58;;;;;;;83.47;17.27;;;7.60;99.90;;;;;;5101829;28;20131;-86
2021/12/29 08:16:24;;;;;;;79.68;17.67;;;7.60;99.90;;;;;;5085498;28;20130;-86
2021/12/29 08:18:50;;;;;;;75.38;16.88;;;7.60;99.90;;;;;;5073010;28;20047;-86
2021/12/29 08:21:15;;;;;;;98.32;18.67;;;7.60;99.90;;;;;;5060976;28;20694;-86
2021/12/29 08:23:41;;;;;;;90.82;18.52;;;7.60;99.90;;;;;;5089830;28;20197;-87
2021/12/29 08:26:07;;;;;;;98.70;19.83;;;7.60;99.90;;;;;;5064383;28;20702;-86
2021/12/29 08:28:33;;;;;;;74.57;18.50;;;7.60;99.90;;;;;;5069972;28;20044;-87
2021/12/29 08:30:58;;;;;;;97.07;19.00;;;7.60;99.90;;;;;;5097908;28;20040;-87
2021/12/29 08:33:24;;;;;;;83.80;17.42;;;7.60;99.90;;;;;;5062586;28;20485;-86
2021/12/29 08:35:50;;;;;;;84.63;18.60;;;7.60;99.90;;;;;;5083970;28;20487;-87
2021/12/29 08:38:16;;;;;;;77.32;16.58;;;7.60;99.90;;;;;;5089802;28;20042;-86
2021/12/29 08:40:41;;;;;;;77.63;17.08;;;7.60;99.90;;;;;;5071838;28;20577;-86
2021/12/29 08:43:07;;;;;;;79.68;17.58;;;7.60;99.90;;;;;;5089633;28;20058;-87
2021/12/29 08:45:34;;;;;;;75.82;17.60;;;7.60;99.90;;;;;;5084874;28;20040;-86
2021/12/29 08:48:01;;;;;;;94.45;18.70;;;7.70;99.90;;;;;;5072690;28;20052;-87
2021/12/29 08:50:29;;;;;;;78.10;17.75;;;7.60;99.90;;;;;;5074013;27;20028;-87
2021/12/29 08:52:57;;;;;;;93.57;19.50;;;7.70;99.90;;;;;;5076618;27;21335;-85
2021/12/29 08:55:22;;;;;;;94.45;17.88;;;7.70;99.90;;;;;;5088441;27;20048;-86
2021/12/29 08:57:49;;;;;;;81.00;16.95;;;7.70;99.90;;;;;;5089582;28;20043;-87
2021/12/29 09:00:17;;;;;;;85.65;16.95;;;7.70;99.90;;;;;;5073426;28;20046;-87
2021/12/29 09:02:43;;;;;;;79.50;17.38;;;7.70;99.90;;;;;;5093963;28;20051;-85
2021/12/29 09:05:11;;;;;;;83.10;16.75;;;7.70;99.90;;;;;;5093271;28;20035;-88
2021/12/29 09:07:40;;;;;;;73.88;15.30;;;7.70;99.90;;;;;;5091177;28;20035;-86
2021/12/29 09:10:07;;;;;;;72.07;15.80;;;7.70;99.90;;;;;;5092596;27;20500;-86
2021/12/29 09:12:33;;;;;;;84.20;16.80;;;7.70;99.90;;;;;;5093603;27;20035;-85
2021/12/29 09:14:59;;;;;;;78.65;16.08;;;7.70;99.90;;;;;;5091722;27;20370;-86
2021/12/29 09:17:25;;;;;;;81.65;16.02;;;7.70;99.90;;;;;;5078393;28;20511;-85
2021/12/29 09:19:51;;;;;;;81.80;15.88;;;7.70;99.90;;;;;;5075106;27;20487;-85
2021/12/29 09:22:16;;;;;;;76.78;16.73;;;7.80;99.90;;;;;;5076978;28;20059;-85
2021/12/29 09:24:43;;;;;;;80.82;16.95;;;7.80;99.90;;;;;;5078800;28;20496;-85
2021/12/29 09:27:09;;;;;;;86.68;16.40;;;7.80;99.90;;;;;;5075377;28;20040;-85
2021/12/29 09:29:35;;;;;;;81.18;16.77;;;7.80;99.90;;;;;;5073375;28;20036;-82
2021/12/29 09:32:05;;;;;;;92.38;17.88;;;7.80;99.90;;;;;;5065115;28;20077;-85
2021/12/29 09:34:35;;;;;;;82.07;15.80;;;7.80;99.90;;;;;;5092118;28;20405;-85
2021/12/29 09:37:02;;;;;;;99.43;17.63;;;7.80;99.90;;;;;;5080419;27;20122;-86
2021/12/29 09:39:27;;;;;;;82.20;16.60;;;7.80;99.90;;;;;;5079760;27;20453;-86
2021/12/29 09:41:53;;;;;;;114.38;17.17;;;7.80;99.90;;;;;;5107147;27;20039;-85
2021/12/29 09:44:19;;;;;;;112.28;18.00;;;7.90;99.90;;;;;;5075526;28;20089;-85
2021/12/29 09:46:45;;;;;;;76.45;15.98;;;7.90;99.90;;;;;;5073533;27;20036;-85
2021/12/29 09:49:11;;;;;;;105.38;17.55;;;7.90;99.90;;;;;;5109370;27;20035;-86
2021/12/29 09:51:37;;;;;;;94.13;16.15;;;7.90;99.90;;;;;;5090366;28;20149;-85
2021/12/29 09:54:03;;;;;;;101.28;16.35;;;7.90;99.90;;;;;;5072956;27;20042;-86
2021/12/29 09:56:29;;;;;;;71.78;14.30;;;7.90;99.90;;;;;;5072761;28;20528;-86
2021/12/29 09:58:56;;;;;;;58.10;13.02;;;7.90;99.90;;;;;;5074536;28;20035;-86
2021/12/29 10:01:22;;;;;;;59.38;13.00;;;8.00;99.90;;;;;;5071463;28;20032;-86
2021/12/29 10:03:48;;;;;;;57.38;13.40;;;7.90;99.90;;;;;;5061051;28;20043;-86
2021/12/29 10:06:15;;;;;;;49.72;12.05;;;8.00;99.90;;;;;;5102130;27;20031;-89
2021/12/29 10:08:43;;;;;;;46.47;9.85;;;8.00;99.90;;;;;;5080582;28;20536;-87
2021/12/29 10:11:31;;;;;;;40.25;10.10;;;8.00;99.90;;;;;;5098060;28;20040;-88
2021/12/29 10:13:58;;;;;;;44.15;9.57;;;8.10;99.90;;;;;;5071935;27;20042;-87
2021/12/29 10:16:28;;;;;;;39.90;9.38;;;8.10;99.90;;;;;;5110290;27;20583;-87
2021/12/29 10:19:05;;;;;;;36.78;8.90;;;8.10;99.90;;;;;;5074321;27;20405;-87
2021/12/29 10:21:33;;;;;;;30.10;8.77;;;8.20;99.90;;;;;;5074793;28;20050;-87
2021/12/29 10:24:01;;;;;;;33.47;8.95;;;8.20;99.90;;;;;;5091276;28;20146;-86
2021/12/29 10:26:29;;;;;;;32.00;9.23;;;8.10;99.90;;;;;;5109276;27;20044;-87
2021/12/29 10:29:00;;;;;;;35.25;9.55;;;8.10;99.90;;;;;;5076428;28;20047;-87
2021/12/29 10:31:32;;;;;;;34.20;8.68;;;8.20;99.90;;;;;;5090425;28;20042;-88
2021/12/29 10:34:03;;;;;;;35.15;9.35;;;8.20;99.90;;;;;;5060004;27;20523;-88
2021/12/29 10:36:51;;;;;;;36.38;9.40;;;8.20;99.90;;;;;;5093746;27;20035;-88
2021/12/29 10:39:26;;;;;;;36.45;9.57;;;8.20;99.90;;;;;;5094570;27;20042;-87
2021/12/29 10:42:02;;;;;;;34.17;9.50;;;8.20;99.90;;;;;;5093486;27;20476;-87
2021/12/29 10:44:35;;;;;;;41.50;9.88;;;8.20;99.90;;;;;;5120113;27;20051;-86
2021/12/29 10:47:16;;;;;;;33.95;8.98;;;8.20;99.90;;;;;;5110013;27;20035;-88
2021/12/29 10:50:10;;;;;;;37.70;10.68;;;8.20;99.90;;;;;;5128073;27;20053;-88
2021/12/29 10:52:44;;;;;;;32.75;9.82;;;8.20;99.90;;;;;;5086552;27;20039;-86
2021/12/29 10:55:16;;;;;;;31.73;10.53;;;8.20;99.90;;;;;;5120544;27;20035;-86
2021/12/29 10:57:42;;;;;;;33.38;11.25;;;8.20;99.90;;;;;;5106056;27;20039;-86
2021/12/29 11:00:16;;;;;;;36.08;10.57;;;8.20;99.90;;;;;;5090225;28;20043;-87
2021/12/29 11:02:43;;;;;;;35.10;10.18;;;8.20;99.90;;;;;;5108746;28;20043;-87
2021/12/29 11:05:10;;;;;;;37.55;10.85;;;8.20;99.90;;;;;;5090456;28;20113;-87
2021/12/29 11:07:38;;;;;;;41.78;11.88;;;8.20;99.90;;;;;;5105371;27;20043;-88
2021/12/29 11:10:12;;;;;;;41.08;11.77;;;8.20;99.90;;;;;;5104440;28;20492;-87
2021/12/29 11:13:04;;;;;;;41.58;11.38;;;8.20;99.90;;;;;;5108691;28;20071;-86
2021/12/29 11:15:37;;;;;;;41.88;12.25;;;8.20;99.90;;;;;;5088251;28;20104;-86
2021/12/29 11:18:06;;;;;;;43.45;12.68;;;8.20;99.90;;;;;;5104436;28;20039;-86
2021/12/29 11:20:33;;;;;;;44.75;12.95;;;8.20;99.90;;;;;;5106523;28;20437;-86
2021/12/29 11:23:11;;;;;;;45.78;12.55;;;8.20;99.90;;;;;;5124297;27;20587;-86
2021/12/29 11:25:38;;;;;;;49.50;13.77;;;8.20;99.90;;;;;;5091933;28;20492;-87
2021/12/29 11:28:05;;;;;;;49.47;14.77;;;8.30;99.90;;;;;;5106502;27;20038;-86
2021/12/29 11:30:31;;;;;;;45.95;13.32;;;8.30;99.90;;;;;;5092971;28;20071;-86
2021/12/29 11:33:11;;;;;;;40.20;13.52;;;8.30;99.90;;;;;;5091010;28;20032;-87
2021/12/29 11:35:43;;;;;;;51.42;13.75;;;8.30;99.90;;;;;;5125267;28;20488;-86
2021/12/29 11:38:10;;;;;;;45.65;13.32;;;8.30;99.90;;;;;;5090219;28;20078;-86
2021/12/29 11:40:40;;;;;;;51.47;14.70;;;8.40;99.90;;;;;;5107078;28;20546;-86
2021/12/29 11:43:09;;;;;;;51.50;14.43;;;8.40;99.90;;;;;;5085738;28;20142;-86
2021/12/29 11:45:39;;;;;;;49.25;13.38;;;8.40;99.90;;;;;;5107815;28;20449;-86
2021/12/29 11:48:05;;;;;;;43.78;12.80;;;8.50;99.90;;;;;;5091602;28;20050;-87
2021/12/29 11:50:34;;;;;;;45.00;15.20;;;8.50;99.90;;;;;;5090784;28;20404;-87
2021/12/29 11:53:29;;;;;;;40.92;12.73;;;8.50;99.90;;;;;;5089702;28;20485;-86
2021/12/29 11:56:20;;;;;;;40.90;12.60;;;8.50;99.90;;;;;;5091827;27;20035;-86
2021/12/29 11:58:48;;;;;;;44.60;13.02;;;8.50;99.90;;;;;;5107014;27;20484;-86
2021/12/29 12:01:25;;;;;;;44.83;12.68;;;8.50;99.90;;;;;;5112481;27;20075;-86
2021/12/29 12:03:59;;;;;;;49.47;13.77;;;8.50;99.90;;;;;;5129060;27;20049;-86
2021/12/29 12:06:35;;;;;;;43.67;12.05;;;8.50;99.90;;;;;;5109537;27;20564;-86
2021/12/29 12:09:01;;;;;;;45.75;12.35;;;8.50;99.90;;;;;;5109634;27;20083;-86
2021/12/29 12:11:28;;;;;;;44.22;12.82;;;8.50;99.90;;;;;;5095285;27;20043;-86
2021/12/29 12:13:54;;;;;;;36.63;11.30;;;8.50;99.90;;;;;;5110680;27;20462;-86
2021/12/29 12:16:20;;;;;;;32.63;10.55;;;8.50;99.90;;;;;;5123327;27;20027;-87
2021/12/29 12:18:51;;;;;;;44.70;12.38;;;8.50;99.90;;;;;;5110131;27;20594;-85
2021/12/29 12:21:26;;;;;;;31.40;8.90;;;8.50;99.90;;;;;;5119247;27;20050;-87
2021/12/29 12:23:52;;;;;;;35.05;10.52;;;8.50;99.90;;;;;;5112445;27;20071;-87
2021/12/29 12:26:22;;;;;;;35.08;9.75;;;8.40;99.90;;;;;;5127029;27;20034;-86
2021/12/29 12:28:50;;;;;;;41.75;9.88;;;8.40;99.90;;;;;;5110078;27;20076;-86
2021/12/29 12:31:30;;;;;;;30.98;10.32;;;8.40;99.90;;;;;;5098203;27;20068;-85
2021/12/29 12:34:14;;;;;;;33.10;10.52;;;8.40;99.90;;;;;;5094053;27;20034;-87
2021/12/29 12:36:41;;;;;;;36.22;10.65;;;8.40;99.90;;;;;;5123718;27;20465;-87
2021/12/29 12:39:16;;;;;;;34.80;10.68;;;8.40;99.90;;;;;;5091977;27;20151;-88
2021/12/29 12:41:44;;;;;;;35.05;10.75;;;8.40;99.90;;;;;;5113883;27;20046;-88
2021/12/29 12:44:10;;;;;;;37.10;10.43;;;8.40;99.90;;;;;;5114846;27;20031;-88